默认 日期 大小 文件数 浏览量 最新下载 xml
kevin磁力链接相关资源由用户搜索指令自动获取,结果来源于网络,本站不存储任何资料,亦不承担任何责任,请于24小时内删除,搜索到7391个磁力,显示前4000条数据,用时5ms。
    {"Artwork": {"Rear.jpg": 940163, "Front Cover.jpg": 931673, "Gatefold - LHS.jpg": 1282809, "Gatefold - RHS.jpg": 1392009, "Side 1 - Label.jpg": 940203, "Side 2 - Label.jpg": 1243055}, "B3 - Lady Rachel 5'17.flac": 105046580, "A2 - Town Feeling 4'46.flac": ...
创建时间: 2019-12-10 02:19:05 大小:813.79 MB 文件数量:16 热度:9 最近下载:2025-09-21 09:28:03
    {"poster.jpg": 62787, "screens.jpg": 373363, "He.said.he.d.lick.her.pussy.like.nobody.did.before.Sandy.Kevin.mp4": 565761215}
创建时间: 2019-12-10 23:18:55 大小:539.97 MB 文件数量:3 热度:11 最近下载:2025-10-08 22:02:29
    {"Front.jpg": 148780, "13. My Destiny.mp3": 8206673, "05. 8 Bar Blues.mp3": 6893236, "03. No Other Love.mp3": 9687293, "11. No Ways Tired.mp3": 8700909, "12. Never Gonna Stop.mp3": 7593317, "04. Gulf Coast Cruise.mp3": 6331081, "07. The Forgotten Ones.mp3 ...
创建时间: 2019-12-11 09:19:03 大小:133.12 MB 文件数量:17 热度:6 最近下载:2025-10-12 07:20:02
    {"scans": {"A.png": 3699440, "B.png": 3938868, "back.tiff": 37866876, "front.tif": 34299508}, "folder.jpg": 184114, "B Mr Dj (Club Mix).flac": 180344967, "A Mr Dj (Original Mix).flac": 163826316}
创建时间: 2019-12-11 22:09:27 大小:404.51 MB 文件数量:7 热度:14 最近下载:2025-10-16 20:40:01
    {"Kevin Spacey Teaches Acting": {"ReadMe.txt": ...
创建时间: 2019-12-11 23:17:11 大小:7.77 GB 文件数量:31 热度:12 最近下载:2025-02-15 22:53:03
    {"2 - Hexed": {"Hexed.jpg": 65053, "01.Hexed.mp3": 13788843, "02.Hexed.mp3": 12446699, "03.Hexed.mp3": 9822507, "04.Hexed.mp3": 9966487, "05.Hexed.mp3": 13177554, "06.Hexed.mp3": 15525993, "07.Hexed.mp3": 2861074, "08.Hexed.mp3": 15310336, "09.Hexed.mp3": ...
创建时间: 2019-12-12 02:55:41 大小:2.42 GB 文件数量:335 热度:6 最近下载:2023-12-28 12:28:02
    {"Front.jpg": 148780, "13. My Destiny.mp3": 8206673, "05. 8 Bar Blues.mp3": 6893236, "03. No Other Love.mp3": 9687293, "11. No Ways Tired.mp3": 8700909, "12. Never Gonna Stop.mp3": 7593317, "04. Gulf Coast Cruise.mp3": 6331081, "07. The Forgotten Ones.mp3 ...
创建时间: 2019-12-12 04:07:53 大小:133.12 MB 文件数量:17 热度:5 最近下载:2025-10-12 01:30:04
    ... ]": {"We Need To Talk About Kevin - Thriller 2011 English.srt": 63265 ... , "We Need To Talk About Kevin - Thriller 2011 English.sub": 42245 ... , "We Need To Talk About Kevin - Thriller 2011 Eng Subs 720p ...
创建时间: 2019-12-12 20:51:43 大小:1.33 GB 文件数量:18 热度:4 最近下载:2025-10-10 10:38:02
    ... .txt": 689, "The.Expanse.S04E00.Kevin.Smith.Explains.The.Expanse.1080p ... .mkv": 1016518708, "The.Expanse.S04E00.Kevin.Smith.Explains.The.Expanse.1080p ...
创建时间: 2019-12-12 21:52:15 大小:969.43 MB 文件数量:3 热度:4 最近下载:2023-12-28 14:41:02
    {"tvmaze.nfo": 1973, "[TGx]Downloaded from torrentgalaxy.to .txt": 689, "jimmy.kimmel.2019.12.11.kevin.hart.web.x264-tbs.mkv": 340575214}
创建时间: 2019-12-12 22:59:31 大小:324.8 MB 文件数量:3 热度:3 最近下载:2023-12-28 14:47:06
    {"[TGx]Downloaded from torrentgalaxy.to .txt": 689, "The.Expanse.S04E00.Kevin.Smith.Explains.The.Expanse.AMZN.WEB-DL.AAC2.0.H.264-NTG.mkv": 183369218, "The.Expanse.S04E00.Kevin.Smith.Explains.The.Expanse.AMZN.WEB-DL.AAC2.0.H.264-NTG.nfo": 1508}
创建时间: 2019-12-13 01:02:22 大小:174.88 MB 文件数量:3 热度:4 最近下载:2023-12-28 15:08:04
    {"www.WeTv.rocks.jpg": 100067, "Kevin.Hart.What.Now.2016.1080p.BRRip.x264 - WeTv.mp4": 1540831504}
创建时间: 2019-12-13 01:47:11 大小:1.44 GB 文件数量:2 热度:5 最近下载:2025-08-30 00:59:03
    {"The.Expanse.S04E00.Kevin.Smith.Explains.The.Expanse.1080p.AMZN.WEB-DL.DDP5.1.H.264-NTG.mkv": 1016518708}
创建时间: 2019-12-13 02:34:59 大小:969.43 MB 文件数量:1 热度:4 最近下载:2023-12-28 15:29:07
    {"RARBG.txt": 30, "RARBG_DO_NOT_MIRROR.exe": 99, "Kevin.And.Perry.Go.Large.2000.1080p.WEBRip.x264-RARBG.mp4": 1697943956}
创建时间: 2019-12-13 05:36:39 大小:1.58 GB 文件数量:3 热度:7 最近下载:2025-01-06 07:06:07
    {"RARBG.txt": 30, "RARBG_DO_NOT_MIRROR.exe": 99, "The.Expanse.S04E00.Kevin.Smith.Explains.The.Expanse.720p.AMZN.WEB-DL.DDP5.1.H.264-NTG.mkv": 563412228}
创建时间: 2019-12-13 08:57:09 大小:537.31 MB 文件数量:3 热度:3 最近下载:2023-12-28 16:25:02
    ... .Clarkson.Show.2019.12.13.Kevin.Hart.480p.x264-mSD.mkv ... .Clarkson.Show.2019.12.13.Kevin.Hart.480p.x264-mSD.nfo ...
创建时间: 2019-12-19 00:01:26 大小:277.95 MB 文件数量:6 热度:5 最近下载:2025-01-02 02:02:04
    {"RARBG.txt": 30, "RARBG_DO_NOT_MIRROR.exe": 99, "The.Expanse.S04E00.Kevin.Smith.Explains.The.Expanse.1080p.AMZN.WEB-DL.DDP5.1.H.264-NTG.mkv": 1016518708}
创建时间: 2019-12-19 04:09:39 大小:969.43 MB 文件数量:3 热度:3 最近下载:2023-12-28 19:57:04
    {"RARBG.txt": 30, "RARBG_DO_NOT_MIRROR.exe": 99, "jimmy.kimmel.2019.12.11.kevin.hart.web.x264-tbs.mkv": 340575214, "jimmy.kimmel.2019.12.11.kevin.hart.web.x264-tbs.nfo": 59}
创建时间: 2019-12-20 21:28:42 大小:324.8 MB 文件数量:4 热度:4 最近下载:2023-12-29 02:01:08
    ... - 00 - Front.jpg": 49966, "Kevin Ayers - Bananamour - 04 - Interview.mp3 ... ": 11618304, "Kevin Ayers - Bananamour - 06 - Decadence.mp3 ... ": 19699712, "Kevin Ayers - Bananamour - 07 - Oh! Wot ...
创建时间: 2019-12-21 00:43:04 大小:343.69 MB 文件数量:62 热度:4 最近下载:2023-12-29 03:58:04
    ... , "jimmy.fallon.2019.12.03.kevin.delaney.720p.web.x264-xlf ... , "jimmy.fallon.2019.12.03.kevin.delaney.720p.web.x264-xlf ...
创建时间: 2019-12-21 09:42:06 大小:750.75 MB 文件数量:7 热度:5 最近下载:2023-12-29 07:41:05